Time;durP1;ratioP1;P1;durP2;ratioP2;P2;SDS_P1;SDS_P2;PMS_P1;PMS_P2;Temp;Humidity;BMP_temperature;BMP_pressure;BME280_temperature;BME280_humidity;BME280_pressure;Samples;Min_cycle;Max_cycle;Signal;HPM_P1;HPM_P2
2023/04/17 00:01:21;;;;;;;0.30;0.30;;;9.10;99.90;;;;;;5093636;28;20658;-60
2023/04/17 00:03:47;;;;;;;0.17;0.15;;;9.10;99.90;;;;;;5093716;28;20219;-60
2023/04/17 00:06:12;;;;;;;0.10;0.10;;;9.10;99.90;;;;;;5093477;28;20184;-60
2023/04/17 00:08:39;;;;;;;0.10;0.10;;;9.10;99.90;;;;;;5093448;28;20185;-60
2023/04/17 00:11:05;;;;;;;0.22;0.22;;;9.10;99.90;;;;;;5093886;28;20260;-60
2023/04/17 00:13:30;;;;;;;0.35;0.35;;;9.10;99.90;;;;;;5093286;28;20267;-60
2023/04/17 00:15:56;;;;;;;0.00;0.00;;;9.10;99.90;;;;;;5093167;28;20199;-60
2023/04/17 00:18:21;;;;;;;0.00;0.00;;;9.10;99.90;;;;;;5092684;28;20187;-60
2023/04/17 00:20:47;;;;;;;0.10;0.10;;;9.00;99.90;;;;;;5093106;28;20204;-60
2023/04/17 00:23:12;;;;;;;0.05;0.05;;;9.00;99.90;;;;;;5092514;28;20184;-60
2023/04/17 00:25:38;;;;;;;0.10;0.10;;;9.00;99.90;;;;;;5092797;28;20184;-60
2023/04/17 00:28:04;;;;;;;0.00;0.00;;;9.00;99.90;;;;;;5092628;28;20702;-60
2023/04/17 00:30:29;;;;;;;0.17;0.17;;;9.00;99.90;;;;;;5092091;28;20212;-60
2023/04/17 00:32:55;;;;;;;0.32;0.32;;;9.00;99.90;;;;;;5092899;28;20176;-60
2023/04/17 00:35:20;;;;;;;0.00;0.00;;;9.00;99.90;;;;;;5092892;28;20188;-60
2023/04/17 00:37:48;;;;;;;0.15;0.15;;;9.00;99.90;;;;;;5093250;28;20184;-60
2023/04/17 00:40:13;;;;;;;0.20;0.20;;;8.90;99.90;;;;;;5092450;28;20184;-60
2023/04/17 00:42:39;;;;;;;0.05;0.05;;;9.10;99.90;;;;;;5092799;28;20187;-60
2023/04/17 00:45:09;;;;;;;0.00;0.00;;;8.90;99.90;;;;;;5091536;28;20180;-60
2023/04/17 00:47:35;;;;;;;0.00;0.00;;;8.90;99.90;;;;;;5092981;28;20225;-60
2023/04/17 00:50:01;;;;;;;0.00;0.00;;;8.90;99.90;;;;;;5092819;28;20748;-60
2023/04/17 00:52:31;;;;;;;0.10;0.10;;;8.90;99.90;;;;;;5092366;28;20222;-60
2023/04/17 00:54:58;;;;;;;0.08;0.08;;;8.90;99.90;;;;;;5092839;28;20215;-60
2023/04/17 00:57:24;;;;;;;0.20;0.20;;;8.90;99.90;;;;;;5092681;28;20180;-60
2023/04/17 00:59:50;;;;;;;0.00;0.00;;;8.90;99.90;;;;;;5074525;28;20524;-60
2023/04/17 01:02:16;;;;;;;0.10;0.10;;;8.90;99.90;;;;;;5092528;28;20187;-60
2023/04/17 01:04:42;;;;;;;0.20;0.20;;;8.80;99.90;;;;;;5092207;28;20172;-60
2023/04/17 01:07:08;;;;;;;0.70;0.08;;;8.90;99.90;;;;;;5092323;28;20229;-60
2023/04/17 01:09:34;;;;;;;0.20;0.20;;;8.80;99.90;;;;;;5092487;28;20701;-60
2023/04/17 01:12:15;;;;;;;0.10;0.10;;;8.80;99.90;;;;;;5092150;28;20184;-61
2023/04/17 01:14:41;;;;;;;0.13;0.13;;;8.80;99.90;;;;;;5090711;28;20179;-60
2023/04/17 01:17:09;;;;;;;0.00;0.00;;;8.80;99.90;;;;;;5092300;28;20168;-60
2023/04/17 01:19:35;;;;;;;0.00;0.00;;;8.80;99.90;;;;;;5092343;28;20183;-61
2023/04/17 01:22:00;;;;;;;0.20;0.20;;;8.80;99.90;;;;;;5091975;28;20195;-60
2023/04/17 01:24:26;;;;;;;0.25;0.25;;;8.80;99.90;;;;;;5092146;28;20180;-60
2023/04/17 01:26:51;;;;;;;0.20;0.20;;;8.80;99.90;;;;;;5091589;28;20215;-60
2023/04/17 01:29:17;;;;;;;0.05;0.05;;;8.80;99.90;;;;;;5092010;28;20215;-60
2023/04/17 01:31:42;;;;;;;0.85;0.85;;;8.80;99.90;;;;;;5092050;28;20184;-60
2023/04/17 01:34:08;;;;;;;0.38;0.38;;;8.80;99.90;;;;;;5091733;28;20203;-60
2023/04/17 01:36:33;;;;;;;0.05;0.05;;;8.80;99.90;;;;;;5091750;28;20184;-60
2023/04/17 01:38:59;;;;;;;0.00;0.00;;;8.80;99.90;;;;;;5082787;28;20201;-60
2023/04/17 01:41:24;;;;;;;0.20;0.20;;;8.80;99.90;;;;;;5091670;28;20176;-60
2023/04/17 01:43:50;;;;;;;0.05;0.05;;;8.80;99.90;;;;;;5091869;28;20220;-60
2023/04/17 01:46:15;;;;;;;0.10;0.10;;;8.80;99.90;;;;;;5090989;28;20263;-60
2023/04/17 01:48:41;;;;;;;0.17;0.17;;;8.70;99.90;;;;;;5091669;28;20183;-60
2023/04/17 01:51:07;;;;;;;0.22;0.15;;;8.70;99.90;;;;;;5091169;28;20599;-60
2023/04/17 01:53:33;;;;;;;0.35;0.35;;;8.70;99.90;;;;;;5091941;28;20636;-60
2023/04/17 01:56:01;;;;;;;0.47;0.35;;;8.70;99.90;;;;;;5091483;28;20251;-60
2023/04/17 01:58:27;;;;;;;0.15;0.13;;;8.70;99.90;;;;;;5091276;28;20175;-60
2023/04/17 02:00:53;;;;;;;0.10;0.10;;;8.70;99.90;;;;;;5091400;28;20722;-60
2023/04/17 02:03:18;;;;;;;0.10;0.10;;;8.70;99.90;;;;;;5091423;28;20573;-60
2023/04/17 02:05:45;;;;;;;0.00;0.00;;;8.70;99.90;;;;;;5091819;28;20539;-60
2023/04/17 02:08:11;;;;;;;0.10;0.10;;;8.70;99.90;;;;;;5091581;28;20183;-60
2023/04/17 02:10:37;;;;;;;0.00;0.00;;;8.70;99.90;;;;;;5091093;28;20212;-60
2023/04/17 02:13:02;;;;;;;0.00;0.00;;;8.70;99.90;;;;;;5091431;28;20173;-60
2023/04/17 02:15:28;;;;;;;0.10;0.10;;;8.70;99.90;;;;;;5091308;28;20568;-60
2023/04/17 02:17:53;;;;;;;0.00;0.00;;;8.70;99.90;;;;;;5091047;28;20188;-60
2023/04/17 02:20:19;;;;;;;0.00;0.00;;;8.70;99.90;;;;;;5091069;28;20204;-60
2023/04/17 02:22:44;;;;;;;0.00;0.00;;;8.70;99.90;;;;;;5085074;28;20195;-60
2023/04/17 02:25:10;;;;;;;0.10;0.10;;;8.70;99.90;;;;;;5079147;28;20176;-60
2023/04/17 02:27:35;;;;;;;0.00;0.00;;;8.70;99.90;;;;;;5090831;28;20226;-60
2023/04/17 02:30:02;;;;;;;0.43;0.43;;;8.80;99.90;;;;;;5073001;28;20204;-60
2023/04/17 02:32:28;;;;;;;0.13;0.13;;;8.80;99.90;;;;;;5090840;28;20180;-60
2023/04/17 02:34:53;;;;;;;0.38;0.38;;;8.80;99.90;;;;;;5091048;28;20202;-60
2023/04/17 02:37:19;;;;;;;0.43;0.43;;;8.80;99.90;;;;;;5090554;28;20184;-60
2023/04/17 02:39:45;;;;;;;0.10;0.10;;;8.70;99.90;;;;;;5091102;28;20253;-60
2023/04/17 02:42:11;;;;;;;0.55;0.55;;;8.80;99.90;;;;;;5090653;28;20643;-60
2023/04/17 02:44:38;;;;;;;0.00;0.00;;;8.70;99.90;;;;;;5090838;28;20722;-60
2023/04/17 02:47:04;;;;;;;0.00;0.00;;;8.70;99.90;;;;;;5089303;28;20255;-60
2023/04/17 02:49:30;;;;;;;0.00;0.00;;;8.70;99.90;;;;;;5091205;28;20208;-60
2023/04/17 02:51:56;;;;;;;0.22;0.22;;;8.70;99.90;;;;;;5091461;28;20183;-60
2023/04/17 02:54:21;;;;;;;0.30;0.30;;;8.60;99.90;;;;;;5094984;28;20571;-61
2023/04/17 02:56:47;;;;;;;0.13;0.13;;;8.60;99.90;;;;;;5095173;28;20403;-61
2023/04/17 02:59:12;;;;;;;0.00;0.00;;;8.50;99.90;;;;;;5094802;28;20241;-61
2023/04/17 03:01:39;;;;;;;0.20;0.20;;;8.50;99.90;;;;;;5094983;28;20233;-61
2023/04/17 03:04:05;;;;;;;0.05;0.05;;;8.50;99.90;;;;;;5094119;28;20184;-61
2023/04/17 03:06:31;;;;;;;0.22;0.22;;;8.50;99.90;;;;;;5094652;28;20176;-61
2023/04/17 03:08:57;;;;;;;0.25;0.25;;;8.50;99.90;;;;;;5094713;28;20664;-61
2023/04/17 03:11:22;;;;;;;0.00;0.00;;;8.40;99.90;;;;;;5094233;28;20211;-61
2023/04/17 03:13:48;;;;;;;0.03;0.03;;;8.40;99.90;;;;;;5094945;28;20180;-61
2023/04/17 03:16:14;;;;;;;0.30;0.30;;;8.40;99.90;;;;;;5094084;28;20188;-61
2023/04/17 03:18:40;;;;;;;0.00;0.00;;;8.40;99.90;;;;;;5093529;28;20176;-62
2023/04/17 03:21:06;;;;;;;0.08;0.08;;;8.40;99.90;;;;;;5094608;28;20501;-62
2023/04/17 03:23:32;;;;;;;0.10;0.10;;;8.40;99.90;;;;;;5090044;28;20184;-63
2023/04/17 03:25:57;;;;;;;0.00;0.00;;;8.40;99.90;;;;;;5092178;28;20205;-63
2023/04/17 03:28:23;;;;;;;0.32;0.32;;;8.40;99.90;;;;;;5094515;28;20316;-62
2023/04/17 03:30:50;;;;;;;0.22;0.22;;;8.40;99.90;;;;;;5094677;28;20204;-60
2023/04/17 03:33:16;;;;;;;0.00;0.00;;;8.40;99.90;;;;;;5094224;28;20376;-60
2023/04/17 03:35:42;;;;;;;0.22;0.22;;;8.40;99.90;;;;;;5094691;28;20194;-61
2023/04/17 03:38:08;;;;;;;0.20;0.20;;;8.40;99.90;;;;;;5094324;28;20222;-61
2023/04/17 03:40:34;;;;;;;0.00;0.00;;;8.40;99.90;;;;;;5093612;28;20571;-61
2023/04/17 03:43:00;;;;;;;0.63;0.63;;;8.40;99.90;;;;;;5094139;28;20172;-60
2023/04/17 03:45:26;;;;;;;0.10;0.10;;;8.30;99.90;;;;;;5093702;28;20188;-59
2023/04/17 03:47:51;;;;;;;0.00;0.00;;;8.30;99.90;;;;;;5093249;28;20225;-62
2023/04/17 03:50:17;;;;;;;0.00;0.00;;;8.30;99.90;;;;;;5093810;28;20235;-61
2023/04/17 03:52:42;;;;;;;0.08;0.08;;;8.30;99.90;;;;;;5093972;28;20179;-59
2023/04/17 03:55:08;;;;;;;0.00;0.00;;;8.30;99.90;;;;;;5093846;28;20182;-60
2023/04/17 03:57:34;;;;;;;0.22;0.22;;;8.30;99.90;;;;;;5092572;28;20188;-60
2023/04/17 04:00:00;;;;;;;0.40;0.40;;;8.30;99.90;;;;;;5075468;28;20529;-60
2023/04/17 04:02:25;;;;;;;0.00;0.00;;;8.30;99.90;;;;;;5093697;28;20697;-58
2023/04/17 04:04:52;;;;;;;0.10;0.10;;;8.20;99.90;;;;;;5092196;28;20317;-59
2023/04/17 04:07:18;;;;;;;0.00;0.00;;;8.20;99.90;;;;;;5092327;28;20273;-60
2023/04/17 04:09:43;;;;;;;0.08;0.08;;;8.20;99.90;;;;;;5091545;28;20742;-60
2023/04/17 04:12:10;;;;;;;0.00;0.00;;;8.20;99.90;;;;;;5093442;28;20266;-60
2023/04/17 04:14:36;;;;;;;0.30;0.30;;;8.20;99.90;;;;;;5093594;28;20176;-60
2023/04/17 04:17:02;;;;;;;0.05;0.05;;;8.20;99.90;;;;;;5093996;28;20180;-60
2023/04/17 04:19:27;;;;;;;1.13;0.20;;;8.20;99.90;;;;;;5093441;28;20198;-60
2023/04/17 04:21:53;;;;;;;0.08;0.08;;;8.20;99.90;;;;;;5093737;28;20164;-60
2023/04/17 04:24:19;;;;;;;0.20;0.20;;;8.20;99.90;;;;;;5075533;28;20276;-60
2023/04/17 04:26:48;;;;;;;0.17;0.17;;;8.30;99.90;;;;;;5093477;28;20176;-60
2023/04/17 04:29:14;;;;;;;0.17;0.17;;;8.30;99.90;;;;;;5093428;28;20176;-60
2023/04/17 04:31:40;;;;;;;0.25;0.25;;;8.30;99.90;;;;;;5075334;28;20647;-60
2023/04/17 04:34:07;;;;;;;0.00;0.00;;;8.30;99.90;;;;;;5093276;28;20196;-60
2023/04/17 04:36:35;;;;;;;0.00;0.00;;;8.30;99.90;;;;;;5093583;28;20266;-60
2023/04/17 04:39:03;;;;;;;0.28;0.28;;;8.30;99.90;;;;;;5093464;28;20184;-60
2023/04/17 04:41:32;;;;;;;0.00;0.00;;;8.30;99.90;;;;;;5092903;28;20176;-60
2023/04/17 04:43:58;;;;;;;0.22;0.22;;;8.30;99.90;;;;;;5093434;28;20282;-60
2023/04/17 04:46:24;;;;;;;0.00;0.00;;;8.30;99.90;;;;;;5093259;28;20227;-60
2023/04/17 04:48:49;;;;;;;0.15;0.15;;;8.30;99.90;;;;;;5093459;28;20172;-60
2023/04/17 04:51:15;;;;;;;0.30;0.30;;;8.30;99.90;;;;;;5093074;28;20208;-60
2023/04/17 04:53:41;;;;;;;0.00;0.00;;;8.30;99.90;;;;;;5093259;28;20180;-60
2023/04/17 04:56:06;;;;;;;0.20;0.13;;;8.30;99.90;;;;;;5092696;28;20659;-60
2023/04/17 04:58:32;;;;;;;0.00;0.00;;;8.40;99.90;;;;;;5092988;28;20176;-60
2023/04/17 05:00:57;;;;;;;0.00;0.00;;;8.40;99.90;;;;;;5092885;28;20184;-60
2023/04/17 05:03:23;;;;;;;0.20;0.20;;;8.40;99.90;;;;;;5092529;28;20206;-60
2023/04/17 05:05:49;;;;;;;0.10;0.10;;;8.40;99.90;;;;;;5092734;28;20199;-60
2023/04/17 05:08:15;;;;;;;0.05;0.05;;;8.40;99.90;;;;;;5092633;28;20178;-61
2023/04/17 05:10:40;;;;;;;0.00;0.00;;;8.50;99.90;;;;;;5092633;28;20215;-61
2023/04/17 05:13:06;;;;;;;0.00;0.00;;;8.50;99.90;;;;;;5092595;28;20176;-60
2023/04/17 05:15:31;;;;;;;0.65;0.65;;;8.50;99.90;;;;;;5092035;28;20218;-60
2023/04/17 05:17:57;;;;;;;0.25;0.25;;;8.50;99.90;;;;;;5092124;28;20172;-60
2023/04/17 05:20:22;;;;;;;0.25;0.25;;;8.50;99.90;;;;;;5092332;28;20172;-61
2023/04/17 05:22:48;;;;;;;0.10;0.10;;;8.50;99.90;;;;;;5092120;28;20172;-60
2023/04/17 05:25:15;;;;;;;0.05;0.05;;;8.60;99.90;;;;;;5073203;28;20185;-60
2023/04/17 05:27:41;;;;;;;0.25;0.25;;;8.60;99.90;;;;;;5071667;28;20240;-60
2023/04/17 05:30:07;;;;;;;0.15;0.15;;;8.60;99.90;;;;;;5073045;28;20243;-60
2023/04/17 05:32:33;;;;;;;0.00;0.00;;;8.60;99.90;;;;;;5079714;28;20176;-60
2023/04/17 05:34:59;;;;;;;1.45;1.13;;;8.60;99.90;;;;;;5077481;28;20590;-61
2023/04/17 05:37:25;;;;;;;0.20;0.20;;;8.60;99.90;;;;;;5091766;28;20225;-60
2023/04/17 05:39:51;;;;;;;0.20;0.20;;;8.60;99.90;;;;;;5091962;28;20207;-60
2023/04/17 05:42:16;;;;;;;0.00;0.00;;;8.70;99.90;;;;;;5091825;28;20234;-60
2023/04/17 05:44:42;;;;;;;0.00;0.00;;;8.70;99.90;;;;;;5091744;28;20532;-60
2023/04/17 05:47:07;;;;;;;0.32;0.32;;;8.80;99.90;;;;;;5073696;28;20180;-60
2023/04/17 05:49:33;;;;;;;0.22;0.22;;;8.80;99.90;;;;;;5091702;28;20557;-60
2023/04/17 05:51:59;;;;;;;0.00;0.00;;;8.80;99.90;;;;;;5091889;28;20180;-60
2023/04/17 05:54:26;;;;;;;0.20;0.20;;;8.90;99.90;;;;;;5091692;28;20171;-61
2023/04/17 05:56:52;;;;;;;0.00;0.00;;;8.90;99.90;;;;;;5091690;28;20201;-61
2023/04/17 05:59:17;;;;;;;0.45;0.45;;;8.90;99.90;;;;;;5091536;28;20275;-61
2023/04/17 06:01:43;;;;;;;0.00;0.00;;;9.00;99.90;;;;;;5091512;28;20184;-60
2023/04/17 06:04:08;;;;;;;0.60;0.40;;;9.00;99.90;;;;;;5091412;28;20183;-61
2023/04/17 06:06:34;;;;;;;0.00;0.00;;;9.00;99.90;;;;;;5091683;28;20183;-60
2023/04/17 06:09:00;;;;;;;0.20;0.20;;;9.00;99.90;;;;;;5073307;28;20222;-60
2023/04/17 06:11:26;;;;;;;0.15;0.15;;;9.10;99.90;;;;;;5091350;28;20320;-60
2023/04/17 06:13:51;;;;;;;0.00;0.00;;;9.10;99.90;;;;;;5091425;28;20176;-60
2023/04/17 06:16:17;;;;;;;0.00;0.00;;;9.20;99.90;;;;;;5090968;28;20180;-60
2023/04/17 06:18:42;;;;;;;0.00;0.00;;;9.20;99.90;;;;;;5091285;28;20620;-61
2023/04/17 06:21:08;;;;;;;0.00;0.00;;;9.30;99.90;;;;;;5091339;28;20219;-60
2023/04/17 06:23:34;;;;;;;0.10;0.10;;;9.20;99.90;;;;;;5091194;28;20571;-61
2023/04/17 06:25:59;;;;;;;0.15;0.15;;;9.30;99.90;;;;;;5090866;28;20172;-61
2023/04/17 06:28:25;;;;;;;0.00;0.00;;;9.30;99.90;;;;;;5090337;28;20227;-60
2023/04/17 06:30:50;;;;;;;0.00;0.00;;;9.20;99.90;;;;;;5073042;28;20220;-61
2023/04/17 06:33:16;;;;;;;0.13;0.13;;;9.30;99.90;;;;;;5088080;28;20647;-61
2023/04/17 06:35:41;;;;;;;0.00;0.00;;;9.30;99.90;;;;;;5064421;28;20271;-60
2023/04/17 06:38:07;;;;;;;0.55;0.55;;;9.30;99.90;;;;;;5073579;28;20173;-61
2023/04/17 06:40:33;;;;;;;0.60;0.60;;;9.30;99.90;;;;;;5070815;28;20635;-60
2023/04/17 06:42:59;;;;;;;0.00;0.00;;;9.30;99.90;;;;;;5085190;28;20191;-60
2023/04/17 06:45:24;;;;;;;0.15;0.15;;;9.40;99.90;;;;;;5091012;28;20237;-61
2023/04/17 06:47:50;;;;;;;0.05;0.05;;;9.50;99.90;;;;;;5091161;28;20172;-61
2023/04/17 06:50:15;;;;;;;0.30;0.30;;;9.50;99.90;;;;;;5090773;28;20567;-59
2023/04/17 06:52:42;;;;;;;0.00;0.00;;;9.60;99.90;;;;;;5089705;28;20180;-59
2023/04/17 06:55:08;;;;;;;0.10;0.10;;;9.60;99.90;;;;;;5090824;28;20280;-59
2023/04/17 06:57:34;;;;;;;0.00;0.00;;;9.60;99.90;;;;;;5090863;28;20179;-59
2023/04/17 06:59:59;;;;;;;0.00;0.00;;;9.60;99.90;;;;;;5091080;28;20247;-60
2023/04/17 07:02:25;;;;;;;0.05;0.05;;;9.70;99.90;;;;;;5090610;28;20229;-59
2023/04/17 07:04:52;;;;;;;0.05;0.05;;;9.70;99.90;;;;;;5091231;28;20650;-61
2023/04/17 07:07:17;;;;;;;0.00;0.00;;;9.80;99.90;;;;;;5091055;28;20258;-60
2023/04/17 07:09:44;;;;;;;0.03;0.03;;;9.90;99.90;;;;;;5091326;28;20326;-60
2023/04/17 07:12:09;;;;;;;0.20;0.20;;;9.90;99.90;;;;;;5091175;28;20688;-60
2023/04/17 07:14:35;;;;;;;0.10;0.10;;;9.90;99.90;;;;;;5090998;28;20184;-60
2023/04/17 07:17:01;;;;;;;0.00;0.00;;;10.00;99.90;;;;;;5091117;28;20200;-59
2023/04/17 07:19:27;;;;;;;0.30;0.30;;;10.00;99.90;;;;;;5091063;28;20539;-59
2023/04/17 07:21:52;;;;;;;0.00;0.00;;;10.10;99.90;;;;;;5090754;28;20172;-61
2023/04/17 07:24:17;;;;;;;0.00;0.00;;;10.20;99.90;;;;;;5091083;28;20187;-59
2023/04/17 07:26:44;;;;;;;0.17;0.17;;;10.40;99.90;;;;;;5090991;28;20179;-59
2023/04/17 07:29:09;;;;;;;0.00;0.00;;;10.50;99.90;;;;;;5091134;28;20160;-59
2023/04/17 07:31:35;;;;;;;0.57;0.25;;;10.60;99.90;;;;;;5090760;28;20212;-59
2023/04/17 07:34:00;;;;;;;0.00;0.00;;;10.70;99.90;;;;;;5091177;28;20842;-59
2023/04/17 07:36:28;;;;;;;0.10;0.10;;;10.80;99.90;;;;;;5090833;28;20204;-59
2023/04/17 07:38:54;;;;;;;0.00;0.00;;;10.90;99.90;;;;;;5093288;28;20172;-59
2023/04/17 07:41:19;;;;;;;0.00;0.00;;;11.10;99.90;;;;;;5094643;28;20643;-59
2023/04/17 07:43:45;;;;;;;0.08;0.08;;;11.20;99.90;;;;;;5094640;28;20179;-59
2023/04/17 07:46:11;;;;;;;0.00;0.00;;;11.40;99.90;;;;;;5094649;28;20176;-59
2023/04/17 07:48:36;;;;;;;0.00;0.00;;;11.50;99.90;;;;;;5094646;28;20176;-59
2023/04/17 07:51:02;;;;;;;0.35;0.08;;;11.60;99.90;;;;;;5094498;28;20207;-59
2023/04/17 07:53:28;;;;;;;0.00;0.00;;;11.70;99.90;;;;;;5094450;28;20185;-59
2023/04/17 07:55:54;;;;;;;0.10;0.10;;;11.80;99.90;;;;;;5094542;28;20184;-59
2023/04/17 07:58:19;;;;;;;0.00;0.00;;;12.00;99.90;;;;;;5094423;28;20198;-59
2023/04/17 08:00:45;;;;;;;0.00;0.00;;;12.00;99.90;;;;;;5094283;28;20631;-59
2023/04/17 08:03:13;;;;;;;0.00;0.00;;;12.10;99.90;;;;;;5094310;28;20168;-59
2023/04/17 08:05:39;;;;;;;0.00;0.00;;;12.10;99.90;;;;;;5094451;28;20203;-59
2023/04/17 08:08:04;;;;;;;0.00;0.00;;;12.00;99.90;;;;;;5094211;28;20187;-59
2023/04/17 08:10:30;;;;;;;0.47;0.30;;;12.00;99.90;;;;;;5093959;28;20208;-59
2023/04/17 08:12:55;;;;;;;0.00;0.00;;;11.90;99.90;;;;;;5094249;28;20172;-59
2023/04/17 08:15:21;;;;;;;0.00;0.00;;;11.90;99.90;;;;;;5093982;28;20644;-59
2023/04/17 08:17:48;;;;;;;0.00;0.00;;;11.90;99.90;;;;;;5093344;28;20623;-59
2023/04/17 08:20:13;;;;;;;0.00;0.00;;;11.90;99.90;;;;;;5093895;28;20302;-59
2023/04/17 08:22:41;;;;;;;0.00;0.00;;;12.10;99.90;;;;;;5094055;28;20266;-59
2023/04/17 08:25:10;;;;;;;0.03;0.03;;;12.20;99.90;;;;;;5093799;28;20251;-59
2023/04/17 08:27:38;;;;;;;0.80;0.80;;;12.20;99.90;;;;;;5093739;28;20215;-59
2023/04/17 08:30:05;;;;;;;0.13;0.13;;;12.30;99.90;;;;;;5093494;28;20280;-59
2023/04/17 08:32:40;;;;;;;0.30;0.30;;;12.50;99.90;;;;;;5093772;28;20207;-59
2023/04/17 08:35:08;;;;;;;0.17;0.17;;;12.60;99.90;;;;;;5087009;28;20233;-60
2023/04/17 08:37:34;;;;;;;0.00;0.00;;;12.70;99.90;;;;;;5073532;28;20181;-59
2023/04/17 08:40:03;;;;;;;0.00;0.00;;;12.80;99.90;;;;;;5073648;28;20200;-59
2023/04/17 08:42:33;;;;;;;0.00;0.00;;;12.90;99.90;;;;;;5073266;28;20172;-59
2023/04/17 08:45:03;;;;;;;0.00;0.00;;;13.10;99.90;;;;;;5073606;28;20177;-59
2023/04/17 08:47:29;;;;;;;0.10;0.10;;;13.30;99.90;;;;;;5073415;28;20177;-59
2023/04/17 08:49:56;;;;;;;0.00;0.00;;;13.50;99.90;;;;;;5072305;28;20735;-59
2023/04/17 08:52:22;;;;;;;0.00;0.00;;;13.70;99.90;;;;;;5073177;28;20264;-59
2023/04/17 08:54:48;;;;;;;0.00;0.00;;;13.80;99.90;;;;;;5073058;28;20954;-59
2023/04/17 08:57:13;;;;;;;0.00;0.00;;;14.00;99.90;;;;;;5073057;28;20191;-59
2023/04/17 08:59:41;;;;;;;0.00;0.00;;;14.10;99.90;;;;;;5073137;28;20203;-59
2023/04/17 09:02:07;;;;;;;0.00;0.00;;;14.20;99.90;;;;;;5072857;28;20176;-59
2023/04/17 09:04:41;;;;;;;0.00;0.00;;;14.30;99.90;;;;;;5072842;28;20173;-59
2023/04/17 09:07:09;;;;;;;0.00;0.00;;;14.20;99.90;;;;;;5072794;28;20180;-59
2023/04/17 09:09:53;;;;;;;0.00;0.00;;;14.10;99.90;;;;;;5072738;28;20180;-59
2023/04/17 09:12:23;;;;;;;0.10;0.10;;;14.00;99.90;;;;;;5072638;28;20275;-59
2023/04/17 09:14:49;;;;;;;0.00;0.00;;;13.90;99.90;;;;;;5072842;28;20180;-59
2023/04/17 09:17:17;;;;;;;0.00;0.00;;;13.70;99.90;;;;;;5076815;28;20172;-59
2023/04/17 09:20:05;;;;;;;0.00;0.00;;;13.70;99.90;;;;;;5092960;28;20168;-59
2023/04/17 09:22:31;;;;;;;0.00;0.00;;;13.60;99.90;;;;;;5092813;28;20176;-59
2023/04/17 09:24:56;;;;;;;0.00;0.00;;;13.40;99.90;;;;;;5092585;28;20184;-59
2023/04/17 09:27:24;;;;;;;0.00;0.00;;;13.30;99.90;;;;;;5092307;28;20234;-59
2023/04/17 09:29:57;;;;;;;0.00;0.00;;;13.20;99.90;;;;;;5092535;28;20249;-59
2023/04/17 09:32:24;;;;;;;0.00;0.00;;;13.00;99.90;;;;;;5092600;28;20179;-59
2023/04/17 09:34:50;;;;;;;0.00;0.00;;;13.00;99.90;;;;;;5088084;28;20226;-59
2023/04/17 09:37:15;;;;;;;0.00;0.00;;;12.90;99.90;;;;;;5072133;28;20184;-59
2023/04/17 09:39:56;;;;;;;0.00;0.00;;;13.00;99.90;;;;;;5081535;28;20183;-59
2023/04/17 09:42:22;;;;;;;0.00;0.00;;;13.00;99.90;;;;;;5092367;28;20183;-59
2023/04/17 09:44:48;;;;;;;0.00;0.00;;;13.20;99.90;;;;;;5092308;28;20172;-59
2023/04/17 09:47:16;;;;;;;0.00;0.00;;;13.30;99.90;;;;;;5092225;28;20176;-59
2023/04/17 09:49:51;;;;;;;0.10;0.10;;;13.40;99.90;;;;;;5074181;28;20191;-59
2023/04/17 09:52:18;;;;;;;0.00;0.00;;;13.40;99.90;;;;;;5092264;28;20256;-59
2023/04/17 09:54:46;;;;;;;0.00;0.00;;;13.30;99.90;;;;;;5092113;28;20188;-59
2023/04/17 09:57:12;;;;;;;0.00;0.00;;;13.20;99.90;;;;;;5092040;28;20184;-59
2023/04/17 09:59:46;;;;;;;0.00;0.00;;;13.10;99.90;;;;;;5092077;28;20490;-59
2023/04/17 10:02:13;;;;;;;0.00;0.00;;;13.00;99.90;;;;;;5091834;28;20175;-59
2023/04/17 10:04:42;;;;;;;0.00;0.00;;;12.90;99.90;;;;;;5091977;28;20650;-59
2023/04/17 10:07:08;;;;;;;0.00;0.00;;;12.80;99.90;;;;;;5091643;28;20400;-59
2023/04/17 10:09:34;;;;;;;0.00;0.00;;;12.70;99.90;;;;;;5091616;28;20172;-59
2023/04/17 10:12:02;;;;;;;0.00;0.00;;;12.70;99.90;;;;;;5091905;28;20185;-59
2023/04/17 10:14:35;;;;;;;0.00;0.00;;;12.70;99.90;;;;;;5091680;28;20176;-59
2023/04/17 10:17:32;;;;;;;0.00;0.00;;;12.80;99.90;;;;;;5091689;28;20187;-59
2023/04/17 10:20:16;;;;;;;0.00;0.00;;;13.00;99.90;;;;;;5091644;28;20353;-59
2023/04/17 10:22:55;;;;;;;0.00;0.00;;;13.10;99.90;;;;;;5091566;28;20254;-59
2023/04/17 10:25:23;;;;;;;0.00;0.00;;;13.10;99.90;;;;;;5091573;28;20175;-59
2023/04/17 10:27:52;;;;;;;0.00;0.00;;;13.20;99.90;;;;;;5091424;28;20388;-59
2023/04/17 10:30:20;;;;;;;0.00;0.00;;;13.20;99.90;;;;;;5091222;28;20236;-59
2023/04/17 10:33:11;;;;;;;0.00;0.00;;;13.20;99.90;;;;;;5091324;28;20176;-59
2023/04/17 10:35:37;;;;;;;0.00;0.00;;;13.30;99.90;;;;;;5091593;28;20666;-59
2023/04/17 10:38:05;;;;;;;0.00;0.00;;;13.30;99.90;;;;;;5091705;28;20204;-59
2023/04/17 10:40:33;;;;;;;0.00;0.00;;;13.20;99.90;;;;;;5091557;28;20176;-59
2023/04/17 10:43:03;;;;;;;0.00;0.00;;;13.20;99.90;;;;;;5091589;28;20183;-60
2023/04/17 10:45:50;;;;;;;0.00;0.00;;;13.20;99.90;;;;;;5091562;28;20568;-59
2023/04/17 10:48:29;;;;;;;0.00;0.00;;;13.10;99.90;;;;;;5091268;28;20584;-60
2023/04/17 10:50:56;;;;;;;0.00;0.00;;;13.10;99.90;;;;;;5091450;28;20356;-60
2023/04/17 10:53:38;;;;;;;0.00;0.00;;;13.00;99.90;;;;;;5091419;28;20214;-59
2023/04/17 10:56:03;;;;;;;0.00;0.00;;;13.00;99.90;;;;;;5091575;28;20178;-60
2023/04/17 10:58:29;;;;;;;0.00;0.00;;;12.90;99.90;;;;;;5091229;28;20254;-60
2023/04/17 11:00:55;;;;;;;0.00;0.00;;;12.90;99.90;;;;;;5091521;28;20171;-61
2023/04/17 11:03:24;;;;;;;0.00;0.00;;;12.80;99.90;;;;;;5091166;28;20698;-60
2023/04/17 11:05:51;;;;;;;0.05;0.05;;;12.80;99.90;;;;;;5091349;28;20195;-61
2023/04/17 11:08:16;;;;;;;0.00;0.00;;;12.90;99.90;;;;;;5091022;28;20176;-61
2023/04/17 11:10:42;;;;;;;0.00;0.00;;;13.10;99.90;;;;;;5091225;28;20222;-60
2023/04/17 11:13:09;;;;;;;0.25;0.15;;;13.20;99.90;;;;;;5092057;28;20172;-61
2023/04/17 11:15:34;;;;;;;0.00;0.00;;;13.30;99.90;;;;;;5095577;28;20519;-60
2023/04/17 11:18:01;;;;;;;0.00;0.00;;;13.40;99.90;;;;;;5095122;28;20168;-58
2023/04/17 11:20:29;;;;;;;0.00;0.00;;;13.50;99.90;;;;;;5094913;28;20176;-58
2023/04/17 11:22:56;;;;;;;0.00;0.00;;;13.60;99.90;;;;;;5095051;28;20582;-58
2023/04/17 11:25:24;;;;;;;0.00;0.00;;;13.80;99.90;;;;;;5094824;28;20562;-58
2023/04/17 11:27:51;;;;;;;0.00;0.00;;;14.10;99.90;;;;;;5094648;28;20306;-58
2023/04/17 11:30:27;;;;;;;0.00;0.00;;;14.30;99.90;;;;;;5094526;28;20306;-58
2023/04/17 11:32:52;;;;;;;0.00;0.00;;;14.50;99.90;;;;;;5095004;28;20171;-58
2023/04/17 11:35:26;;;;;;;0.00;0.00;;;14.60;99.90;;;;;;5094605;28;20324;-58
2023/04/17 11:38:16;;;;;;;0.00;0.00;;;14.60;99.90;;;;;;5094837;28;20184;-58
2023/04/17 11:40:53;;;;;;;0.00;0.00;;;14.50;99.90;;;;;;5094790;28;20180;-58
2023/04/17 11:43:20;;;;;;;0.00;0.00;;;14.60;99.90;;;;;;5083075;28;20180;-58
2023/04/17 11:45:51;;;;;;;0.00;0.00;;;14.50;99.90;;;;;;5074338;28;20231;-58
2023/04/17 11:48:21;;;;;;;0.00;0.00;;;14.40;99.90;;;;;;5074382;28;20184;-59
2023/04/17 11:50:47;;;;;;;0.00;0.00;;;14.30;99.90;;;;;;5073952;28;20205;-59
2023/04/17 11:53:15;;;;;;;0.00;0.00;;;14.20;99.90;;;;;;5074101;28;20211;-59
2023/04/17 11:55:41;;;;;;;0.20;0.15;;;14.10;99.90;;;;;;5074252;28;20203;-59
2023/04/17 11:58:08;;;;;;;0.10;0.10;;;14.00;99.90;;;;;;5073927;28;20252;-59
2023/04/17 12:00:36;;;;;;;0.00;0.00;;;13.90;99.90;;;;;;5074173;28;20267;-58
2023/04/17 12:03:23;;;;;;;0.08;0.08;;;13.70;99.90;;;;;;5074107;28;20173;-61
2023/04/17 12:06:00;;;;;;;0.00;0.00;;;13.70;99.90;;;;;;5073604;28;20857;-59
2023/04/17 12:08:27;;;;;;;0.00;0.00;;;13.60;99.90;;;;;;5073664;28;20188;-60
2023/04/17 12:10:52;;;;;;;0.00;0.00;;;13.60;99.90;;;;;;5074028;28;20212;-58
2023/04/17 12:13:18;;;;;;;0.00;0.00;;;13.60;99.90;;;;;;5073859;28;20238;-59
2023/04/17 12:15:43;;;;;;;0.00;0.00;;;13.60;99.90;;;;;;5073818;28;20185;-58
2023/04/17 12:18:09;;;;;;;0.00;0.00;;;13.60;99.90;;;;;;5085451;28;20172;-58
2023/04/17 12:20:35;;;;;;;0.00;0.00;;;13.50;99.90;;;;;;5094057;28;20179;-58
2023/04/17 12:23:02;;;;;;;0.00;0.00;;;13.50;99.90;;;;;;5093936;28;20176;-58
2023/04/17 12:25:28;;;;;;;0.00;0.00;;;13.60;99.90;;;;;;5092462;28;20176;-58
2023/04/17 12:27:55;;;;;;;0.00;0.00;;;13.70;99.90;;;;;;5093659;28;20238;-58
2023/04/17 12:30:22;;;;;;;0.00;0.00;;;13.70;99.90;;;;;;5093721;28;20658;-58
2023/04/17 12:32:48;;;;;;;0.00;0.00;;;13.70;99.90;;;;;;5093625;28;20183;-58
2023/04/17 12:35:17;;;;;;;0.00;0.00;;;13.80;99.90;;;;;;5093567;28;20255;-58
2023/04/17 12:37:47;;;;;;;0.00;0.00;;;13.90;99.90;;;;;;5082068;28;20181;-58
2023/04/17 12:40:21;;;;;;;0.00;0.00;;;14.00;99.90;;;;;;5073345;28;20210;-58
2023/04/17 12:42:47;;;;;;;0.00;0.00;;;14.10;99.90;;;;;;5073440;28;20173;-58
2023/04/17 12:45:14;;;;;;;0.00;0.00;;;14.20;99.90;;;;;;5073422;28;20181;-58
2023/04/17 12:47:40;;;;;;;0.00;0.00;;;14.30;99.90;;;;;;5073303;28;20177;-58
2023/04/17 12:50:07;;;;;;;0.22;0.22;;;14.30;99.70;;;;;;5073035;28;20208;-58
2023/04/17 12:52:33;;;;;;;0.00;0.00;;;14.20;99.10;;;;;;5073223;28;20181;-58